Time;durP1;ratioP1;P1;durP2;ratioP2;P2;SDS_P1;SDS_P2;PMS_P1;PMS_P2;Temp;Humidity;BMP_temperature;BMP_pressure;BME280_temperature;BME280_humidity;BME280_pressure;Samples;Min_cycle;Max_cycle;Signal;HPM_P1;HPM_P2
2022/12/31 00:00:37;;;;;;;3.72;2.58;;;13.50;99.90;;;12.56;100.00;100260.22;5011951;28;20034;-70
2022/12/31 00:03:07;;;;;;;3.38;2.55;;;13.50;99.90;;;12.52;100.00;100245.41;4993855;28;20050;-71
2022/12/31 00:05:36;;;;;;;3.07;2.17;;;13.90;99.90;;;12.55;100.00;100256.72;4999289;28;20053;-70
2022/12/31 00:08:03;;;;;;;2.97;1.52;;;13.40;99.90;;;12.53;100.00;100248.00;4996328;28;20049;-70
2022/12/31 00:10:33;;;;;;;2.17;1.42;;;13.30;99.90;;;12.50;100.00;100247.22;5016125;28;20061;-70
2022/12/31 00:13:00;;;;;;;2.37;1.97;;;13.60;99.90;;;12.49;100.00;100259.59;4967971;28;20111;-70
2022/12/31 00:15:27;;;;;;;1.92;1.60;;;13.30;99.90;;;12.50;100.00;100249.88;5010884;28;20053;-70
2022/12/31 00:17:54;;;;;;;2.85;1.70;;;13.30;99.90;;;12.50;100.00;100256.03;4997641;28;20061;-70
2022/12/31 00:20:21;;;;;;;1.58;1.45;;;13.30;99.90;;;12.48;100.00;100258.69;5000481;28;20314;-70
2022/12/31 00:22:49;;;;;;;1.77;1.65;;;13.30;99.90;;;12.50;100.00;100247.22;4992658;28;20163;-71
2022/12/31 00:25:16;;;;;;;1.55;1.30;;;13.30;99.90;;;12.51;100.00;100257.75;4994136;28;20459;-70
2022/12/31 00:27:43;;;;;;;1.33;1.23;;;13.30;99.90;;;12.52;100.00;100235.72;5000153;28;20069;-70
2022/12/31 00:30:11;;;;;;;1.80;1.60;;;13.30;99.90;;;12.54;100.00;100240.94;4995704;28;20042;-70
2022/12/31 00:32:39;;;;;;;3.05;1.42;;;13.30;99.90;;;12.54;100.00;100243.56;4995915;28;20053;-70
2022/12/31 00:35:07;;;;;;;1.40;1.30;;;13.30;99.90;;;12.56;100.00;100247.88;4999724;28;20698;-70
2022/12/31 00:37:34;;;;;;;3.03;1.85;;;13.40;99.90;;;12.56;100.00;100247.88;4983161;28;20713;-70
2022/12/31 00:40:01;;;;;;;3.70;1.85;;;13.30;99.90;;;12.61;100.00;100250.38;4979426;28;20148;-70
2022/12/31 00:42:28;;;;;;;2.47;1.40;;;13.80;99.90;;;12.62;100.00;100250.31;4994740;28;20045;-70
2022/12/31 00:44:55;;;;;;;1.65;1.52;;;13.40;99.90;;;12.68;100.00;100254.50;4996787;28;20053;-70
2022/12/31 00:47:23;;;;;;;1.30;1.20;;;13.40;99.90;;;12.68;100.00;100262.44;4994650;28;20056;-70
2022/12/31 00:49:50;;;;;;;1.70;1.60;;;14.10;99.90;;;12.70;100.00;100262.41;4996619;28;20049;-70
2022/12/31 00:52:17;;;;;;;1.67;1.42;;;13.50;99.90;;;12.73;100.00;100283.41;4981649;28;20568;-70
2022/12/31 00:54:44;;;;;;;2.13;1.30;;;14.00;99.90;;;12.75;100.00;100287.72;4995274;28;20041;-69
2022/12/31 00:57:11;;;;;;;2.30;1.45;;;13.90;99.90;;;12.79;100.00;100275.25;4979485;28;20100;-70
2022/12/31 00:59:38;;;;;;;3.47;1.40;;;13.60;99.90;;;12.79;100.00;100285.81;4994614;28;20057;-69
2022/12/31 01:02:05;;;;;;;1.30;1.20;;;13.60;99.90;;;12.76;100.00;100281.53;4999544;28;20057;-70
2022/12/31 01:04:33;;;;;;;2.55;1.38;;;14.10;99.90;;;12.78;100.00;100273.53;4975612;28;20065;-70
2022/12/31 01:07:00;;;;;;;1.48;1.20;;;13.60;99.90;;;12.82;100.00;100276.94;4994736;28;20049;-70
2022/12/31 01:09:27;;;;;;;2.05;1.40;;;13.60;99.90;;;12.87;100.00;100293.47;4998981;28;20065;-69
2022/12/31 01:11:54;;;;;;;1.15;1.10;;;13.70;99.90;;;12.93;100.00;100277.44;5014663;28;21484;-70
2022/12/31 01:14:21;;;;;;;1.15;1.13;;;13.10;99.90;;;12.96;100.00;100292.31;4975159;28;20043;-69
2022/12/31 01:16:51;;;;;;;1.42;1.33;;;13.70;99.90;;;12.96;100.00;100289.69;4994475;28;20530;-70
2022/12/31 01:19:21;;;;;;;;;;;13.70;99.90;;;13.03;100.00;100305.25;4983032;28;20054;-70
2022/12/31 01:21:50;;;;;;;1.08;1.02;;;13.80;99.90;;;13.04;100.00;100292.88;4977106;28;19930;-70
2022/12/31 01:24:18;;;;;;;1.85;1.60;;;13.90;99.90;;;13.15;100.00;100316.28;4998645;28;20053;-70
2022/12/31 01:26:45;;;;;;;1.65;1.30;;;13.90;99.90;;;13.15;100.00;100289.84;4997765;28;20069;-70
2022/12/31 01:29:13;;;;;;;0.93;0.93;;;14.00;99.90;;;13.12;100.00;100282.06;5015617;28;20507;-70
2022/12/31 01:31:40;;;;;;;2.53;1.70;;;13.90;99.90;;;13.14;100.00;100301.34;5014713;28;20515;-70
2022/12/31 01:34:08;;;;;;;2.45;1.23;;;13.80;99.90;;;13.15;100.00;100298.66;4983382;28;20095;-69
2022/12/31 01:36:37;;;;;;;1.55;1.17;;;14.00;99.90;;;13.13;100.00;100299.63;4980105;28;20533;-70
2022/12/31 01:39:07;;;;;;;1.48;1.38;;;13.90;99.90;;;13.22;100.00;100304.59;5001360;28;20323;-69
2022/12/31 01:41:41;;;;;;;2.53;1.48;;;13.90;99.90;;;13.25;100.00;100308.88;5004640;28;20438;-70
2022/12/31 01:44:11;;;;;;;1.30;1.08;;;14.20;99.90;;;13.24;100.00;100301.88;5005014;28;20062;-69
2022/12/31 01:46:44;;;;;;;1.33;1.10;;;14.00;99.90;;;13.30;100.00;100309.59;5002797;28;20037;-70
2022/12/31 01:49:31;;;;;;;1.42;1.17;;;14.10;99.90;;;13.27;100.00;100309.72;5014712;28;20056;-69
2022/12/31 01:52:07;;;;;;;3.20;1.30;;;14.10;99.90;;;13.29;100.00;100298.16;5009619;28;20446;-70
2022/12/31 01:54:41;;;;;;;2.85;1.45;;;14.10;99.90;;;13.24;100.00;100317.72;4983115;28;20057;-69
2022/12/31 01:57:09;;;;;;;1.88;1.20;;;14.00;99.90;;;13.31;100.00;100301.59;4993678;28;20475;-70
2022/12/31 01:59:37;;;;;;;1.40;1.30;;;14.10;99.90;;;13.30;100.00;100310.44;4993854;28;20046;-70
2022/12/31 02:02:05;;;;;;;1.75;1.10;;;14.30;99.90;;;13.38;100.00;100322.53;5014482;28;20740;-70
2022/12/31 02:04:32;;;;;;;1.75;1.25;;;14.10;99.90;;;13.36;100.00;100319.09;4997908;28;20072;-70
2022/12/31 02:07:08;;;;;;;1.52;1.42;;;14.10;99.90;;;13.35;100.00;100307.63;5009691;28;20042;-70
2022/12/31 02:09:38;;;;;;;2.30;1.35;;;14.10;99.90;;;13.43;100.00;100316.19;4993166;28;20065;-70
2022/12/31 02:12:08;;;;;;;2.00;1.33;;;14.70;99.90;;;13.42;100.00;100308.28;4988908;28;20061;-70
2022/12/31 02:14:43;;;;;;;3.97;1.30;;;14.20;99.90;;;13.33;100.00;100312.97;5009221;28;20074;-70
2022/12/31 02:17:37;;;;;;;1.23;1.10;;;14.20;99.90;;;13.45;100.00;100324.91;5009338;28;20125;-70
2022/12/31 02:20:54;;;;;;;1.30;1.10;;;14.20;99.90;;;13.52;100.00;100320.28;4993033;28;20101;-70
2022/12/31 02:24:03;;;;;;;1.92;1.52;;;14.30;99.90;;;13.47;100.00;100312.50;4978902;28;20775;-69
2022/12/31 02:27:00;;;;;;;2.25;1.45;;;14.30;99.90;;;13.53;100.00;100318.47;4993757;28;20046;-70
2022/12/31 02:30:02;;;;;;;1.92;1.30;;;14.30;99.90;;;13.78;100.00;100328.13;4980787;28;20046;-70
2022/12/31 02:33:14;;;;;;;2.15;1.40;;;14.40;99.90;;;13.83;100.00;100334.97;4996200;28;20046;-70
2022/12/31 02:35:59;;;;;;;1.52;1.40;;;14.50;99.90;;;13.82;100.00;100333.25;5006013;28;20104;-70
2022/12/31 02:38:32;;;;;;;1.95;1.33;;;14.60;99.90;;;13.87;100.00;100315.41;4996342;28;20074;-70
2022/12/31 02:40:59;;;;;;;2.17;1.77;;;14.60;99.90;;;13.85;100.00;100319.91;4998140;28;20526;-70
2022/12/31 02:43:27;;;;;;;3.05;1.38;;;14.60;99.90;;;13.88;100.00;100317.16;4997346;28;20169;-69
2022/12/31 02:46:26;;;;;;;2.25;1.02;;;14.60;99.90;;;13.85;100.00;100321.69;4997298;28;20112;-70
2022/12/31 02:49:15;;;;;;;2.42;1.30;;;14.70;99.90;;;13.84;100.00;100326.13;4997542;28;20096;-70
2022/12/31 02:52:25;;;;;;;1.30;1.20;;;14.60;99.90;;;13.86;100.00;100333.97;4988120;28;20092;-70
2022/12/31 02:55:07;;;;;;;2.30;1.48;;;14.60;99.90;;;13.75;100.00;100332.63;4992062;28;20053;-70
2022/12/31 02:57:46;;;;;;;1.30;1.17;;;14.50;99.90;;;13.72;100.00;100323.94;4994165;28;20108;-70
2022/12/31 03:03:05;;;;;;;1.30;1.20;;;14.50;99.90;;;13.71;100.00;100320.41;4993933;28;20137;-70
2022/12/31 03:05:39;;;;;;;3.75;1.30;;;14.50;99.90;;;13.75;100.00;100311.47;4981500;28;20050;-70
2022/12/31 03:08:06;;;;;;;1.85;1.35;;;14.50;99.90;;;13.75;100.00;100316.75;4997336;28;20049;-70
2022/12/31 03:10:34;;;;;;;1.40;1.30;;;14.50;99.90;;;13.78;100.00;100325.50;4975698;28;20046;-70
2022/12/31 03:13:01;;;;;;;3.10;1.52;;;14.80;99.90;;;13.83;100.00;100334.97;4978488;28;20061;-70
2022/12/31 03:15:32;;;;;;;1.83;1.10;;;14.60;99.90;;;13.85;100.00;100338.44;4991615;28;20053;-70
2022/12/31 03:18:08;;;;;;;1.98;1.40;;;14.60;99.90;;;13.92;100.00;100343.47;5008152;28;20116;-70
2022/12/31 03:23:29;;;;;;;1.30;1.20;;;14.60;99.90;;;13.92;100.00;100336.41;5005744;28;20057;-70
2022/12/31 03:25:58;;;;;;;2.75;1.60;;;14.70;99.90;;;13.90;100.00;100333.81;4997373;28;20053;-70
2022/12/31 03:28:29;;;;;;;2.60;1.33;;;14.80;99.90;;;13.98;100.00;100330.88;5012872;28;20399;-70
2022/12/31 03:30:59;;;;;;;1.35;1.20;;;14.70;99.90;;;13.90;100.00;100328.53;4996017;28;20098;-70
2022/12/31 03:33:35;;;;;;;2.28;1.38;;;14.80;99.90;;;13.97;100.00;100334.44;4996539;28;20056;-70
2022/12/31 03:36:10;;;;;;;1.98;1.55;;;14.80;99.90;;;13.99;100.00;100321.16;4992099;28;20422;-69
2022/12/31 03:38:38;;;;;;;1.30;1.20;;;14.80;99.90;;;13.97;100.00;100326.50;4991842;28;20677;-70
2022/12/31 03:41:05;;;;;;;1.00;0.98;;;14.90;99.90;;;13.90;100.00;100336.47;4976375;28;20057;-70
2022/12/31 03:43:32;;;;;;;2.40;1.65;;;14.70;99.90;;;13.93;100.00;100334.59;4992070;28;20759;-70
2022/12/31 03:46:00;;;;;;;2.63;1.60;;;15.10;99.90;;;13.99;100.00;100319.38;4996282;28;20050;-70
2022/12/31 03:48:27;;;;;;;5.55;1.30;;;14.70;99.90;;;13.99;100.00;100307.94;4991537;28;20100;-70
2022/12/31 03:50:55;;;;;;;1.23;1.10;;;14.80;99.90;;;14.03;100.00;100309.53;5012630;28;20046;-70
2022/12/31 03:53:22;;;;;;;1.75;1.38;;;14.80;99.90;;;14.16;100.00;100320.47;5008103;28;21102;-70
2022/12/31 03:55:53;;;;;;;2.88;1.50;;;15.30;99.80;;;14.18;100.00;100330.09;4993226;28;20060;-70
2022/12/31 03:58:21;;;;;;;4.53;2.03;;;15.10;99.70;;;14.16;100.00;100321.34;5003670;28;20054;-71
2022/12/31 04:00:48;;;;;;;5.28;2.95;;;14.90;99.80;;;14.12;100.00;100329.47;4980469;28;20062;-70
2022/12/31 04:03:16;;;;;;;3.75;1.77;;;15.00;99.80;;;14.17;100.00;100327.50;4994137;28;20197;-70
2022/12/31 04:05:43;;;;;;;2.70;1.30;;;15.00;99.80;;;14.23;100.00;100313.16;4974317;28;20046;-69
2022/12/31 04:08:10;;;;;;;1.92;1.38;;;15.00;99.50;;;14.16;100.00;100315.19;4989608;28;20087;-70
2022/12/31 04:10:37;;;;;;;2.10;1.48;;;15.00;99.60;;;14.32;100.00;100324.22;4972996;28;20050;-70
2022/12/31 04:13:04;;;;;;;2.17;1.40;;;15.00;99.50;;;14.32;100.00;100318.09;4989745;28;20045;-70
2022/12/31 04:15:31;;;;;;;2.78;1.25;;;15.20;99.40;;;14.34;100.00;100316.25;4989362;28;20273;-70
2022/12/31 04:17:58;;;;;;;1.63;0.95;;;15.10;99.60;;;14.36;100.00;100314.38;4972542;28;20549;-70
2022/12/31 04:20:25;;;;;;;1.63;0.90;;;15.30;99.30;;;14.34;100.00;100326.84;4973716;28;20092;-70
2022/12/31 04:22:52;;;;;;;3.55;1.30;;;15.10;99.30;;;14.46;100.00;100328.09;4990199;28;20329;-70
2022/12/31 04:25:19;;;;;;;2.88;1.40;;;15.20;99.60;;;14.44;100.00;100327.31;4967893;28;21419;-70
2022/12/31 04:27:46;;;;;;;2.28;1.15;;;15.20;99.30;;;14.48;100.00;100341.28;4956718;28;20060;-70
2022/12/31 04:30:14;;;;;;;2.65;1.42;;;15.20;99.20;;;14.50;100.00;100335.00;4994117;28;20050;-70
2022/12/31 04:32:42;;;;;;;1.30;1.20;;;15.30;99.30;;;14.61;100.00;100339.88;4961835;28;20058;-70
2022/12/31 04:35:11;;;;;;;3.25;1.10;;;15.30;99.20;;;14.53;100.00;100339.31;4995481;28;20839;-70
2022/12/31 04:37:38;;;;;;;1.23;1.13;;;15.30;99.20;;;14.53;100.00;100344.59;4994852;28;20121;-70
2022/12/31 04:40:07;;;;;;;2.15;1.67;;;15.40;99.20;;;14.56;100.00;100337.41;4979131;28;20078;-70
2022/12/31 04:42:35;;;;;;;1.25;1.15;;;15.40;99.00;;;14.55;100.00;100345.41;4994944;28;20053;-70
2022/12/31 04:45:03;;;;;;;1.30;1.20;;;15.30;99.30;;;14.51;100.00;100342.00;4998542;28;20055;-70
2022/12/31 04:47:30;;;;;;;1.40;1.30;;;15.30;99.40;;;14.50;100.00;100342.09;4983588;28;21392;-70
2022/12/31 04:49:57;;;;;;;2.30;1.30;;;15.30;99.40;;;14.53;100.00;100349.91;4990201;28;20046;-71
2022/12/31 04:52:24;;;;;;;1.98;1.10;;;15.20;99.30;;;14.55;100.00;100346.28;4994863;28;20176;-70
2022/12/31 04:54:52;;;;;;;2.70;1.13;;;15.40;99.30;;;14.61;100.00;100356.59;4966423;28;20565;-70
2022/12/31 04:57:19;;;;;;;1.42;1.27;;;15.60;99.20;;;14.60;100.00;100352.22;4959176;28;20046;-69
2022/12/31 04:59:46;;;;;;;0.85;0.85;;;15.40;99.30;;;14.62;100.00;100362.78;4994940;28;20085;-70
2022/12/31 05:02:14;;;;;;;1.30;1.20;;;15.40;99.30;;;14.59;100.00;100358.47;4990032;28;20061;-70
2022/12/31 05:04:42;;;;;;;1.52;1.13;;;15.40;99.30;;;14.66;100.00;100353.78;4991002;28;20053;-70
2022/12/31 05:07:10;;;;;;;1.13;0.90;;;16.20;99.40;;;14.68;100.00;100365.16;4994061;28;20054;-69
2022/12/31 05:09:37;;;;;;;2.05;1.17;;;15.50;99.30;;;14.78;100.00;100357.72;4996621;28;20132;-69
2022/12/31 05:12:04;;;;;;;2.88;1.15;;;15.70;99.10;;;14.72;100.00;100356.19;5000387;28;20046;-69
2022/12/31 05:14:31;;;;;;;1.10;0.90;;;15.50;99.10;;;14.75;100.00;100373.75;5011366;28;20108;-69
2022/12/31 05:16:59;;;;;;;3.00;1.75;;;15.50;99.00;;;14.72;100.00;100364.13;5004583;28;20096;-70
2022/12/31 05:19:27;;;;;;;1.00;0.98;;;15.50;99.10;;;14.72;100.00;100377.38;4994891;28;20068;-70
2022/12/31 05:24:39;;;;;;;1.17;1.05;;;15.70;99.20;;;14.74;100.00;100378.16;4995512;28;20070;-70
2022/12/31 05:27:06;;;;;;;2.47;1.10;;;15.80;99.30;;;14.68;100.00;100374.91;4983101;28;20050;-70
2022/12/31 05:29:33;;;;;;;2.85;0.95;;;15.50;99.10;;;14.75;100.00;100379.03;4995583;28;20426;-70
2022/12/31 05:32:00;;;;;;;2.25;1.00;;;15.50;99.10;;;14.88;100.00;100376.72;4996134;28;20128;-70
2022/12/31 05:34:27;;;;;;;1.08;0.95;;;15.60;98.90;;;14.87;100.00;100382.97;4995135;28;20050;-70
2022/12/31 05:36:55;;;;;;;1.10;1.00;;;15.60;98.90;;;14.89;100.00;100375.81;4999011;28;20739;-70
2022/12/31 05:39:22;;;;;;;0.85;0.85;;;15.60;98.80;;;14.87;100.00;100380.31;4999206;28;20786;-71
2022/12/31 05:41:50;;;;;;;1.00;1.00;;;15.60;98.80;;;14.82;100.00;100380.50;4976661;28;20045;-70
2022/12/31 05:44:17;;;;;;;1.27;1.00;;;15.80;99.00;;;14.80;100.00;100378.84;4993618;28;20092;-70
2022/12/31 05:46:46;;;;;;;1.10;1.00;;;15.90;99.10;;;14.88;100.00;100392.63;4994854;28;20714;-70
2022/12/31 05:49:13;;;;;;;1.15;1.05;;;15.60;99.00;;;14.87;100.00;100393.56;4995122;28;20042;-70
2022/12/31 05:51:40;;;;;;;1.30;1.20;;;15.70;99.00;;;14.95;100.00;100395.88;4998466;28;20057;-71
2022/12/31 05:54:07;;;;;;;5.45;2.20;;;15.70;98.90;;;14.92;100.00;100399.53;4999583;28;20082;-70
2022/12/31 05:56:35;;;;;;;2.05;1.20;;;16.10;98.90;;;14.89;100.00;100407.59;4982654;28;20057;-70
2022/12/31 05:59:02;;;;;;;1.70;1.38;;;15.70;99.30;;;14.80;100.00;100414.13;4998141;28;20108;-70
2022/12/31 06:01:29;;;;;;;1.00;1.00;;;15.90;99.90;;;14.67;100.00;100412.88;4995071;28;20054;-70
2022/12/31 06:03:57;;;;;;;0.90;0.90;;;15.50;99.90;;;14.66;100.00;100424.38;4964500;28;20164;-71
2022/12/31 06:06:24;;;;;;;3.22;1.38;;;15.40;99.90;;;14.59;100.00;100415.81;5007028;28;20076;-70
2022/12/31 06:08:54;;;;;;;1.00;0.90;;;15.30;99.90;;;14.60;100.00;100431.66;4993309;28;20061;-70
2022/12/31 06:11:21;;;;;;;0.80;0.80;;;15.40;99.90;;;14.56;100.00;100415.97;5009128;28;20038;-71
2022/12/31 06:13:48;;;;;;;0.85;0.85;;;15.20;99.90;;;14.55;100.00;100406.28;4996485;28;20084;-71
2022/12/31 06:16:15;;;;;;;1.17;1.00;;;15.20;99.90;;;14.51;100.00;100407.34;5009088;28;20074;-71
2022/12/31 06:18:43;;;;;;;1.92;1.00;;;15.20;99.90;;;14.53;100.00;100422.25;4979699;28;20050;-71
2022/12/31 06:21:10;;;;;;;0.93;0.90;;;15.20;99.90;;;14.55;100.00;100412.47;5009482;28;20065;-70
2022/12/31 06:23:39;;;;;;;2.00;1.20;;;15.40;99.90;;;14.55;100.00;100430.13;4997403;28;20125;-71
2022/12/31 06:26:07;;;;;;;1.02;1.02;;;15.80;99.90;;;14.54;100.00;100425.75;5010163;28;20601;-71
2022/12/31 06:28:35;;;;;;;1.48;1.13;;;15.20;99.90;;;14.52;100.00;100420.53;4994562;28;20465;-71
2022/12/31 06:31:05;;;;;;;2.47;1.17;;;15.20;99.90;;;14.51;100.00;100439.13;4995986;28;20047;-70
2022/12/31 06:33:33;;;;;;;;;;;14.40;99.90;;;14.50;100.00;100442.69;4982131;28;20529;-71
2022/12/31 06:36:03;;;;;;;1.50;1.15;;;15.20;99.90;;;14.55;100.00;100446.88;4993364;28;19976;-71
2022/12/31 06:38:33;;;;;;;1.00;1.00;;;15.50;99.90;;;14.51;100.00;100431.16;5007978;28;20073;-71
2022/12/31 06:41:05;;;;;;;1.42;1.10;;;15.30;99.90;;;14.53;100.00;100440.78;5008614;28;20057;-71
2022/12/31 06:43:34;;;;;;;3.67;1.00;;;15.30;99.70;;;14.55;100.00;100451.31;4964006;28;20052;-71
2022/12/31 06:46:02;;;;;;;2.75;1.30;;;15.30;99.70;;;14.51;100.00;100437.31;4996759;28;20061;-71
2022/12/31 06:48:29;;;;;;;1.75;1.27;;;15.30;99.70;;;14.44;100.00;100435.84;4996439;28;20050;-71
2022/12/31 06:51:06;;;;;;;1.30;1.10;;;15.20;99.80;;;14.44;100.00;100438.50;4980669;28;20061;-71
2022/12/31 06:53:39;;;;;;;2.25;1.23;;;15.30;99.90;;;14.45;100.00;100435.78;4981948;28;20068;-71
2022/12/31 06:56:15;;;;;;;1.98;1.45;;;15.60;99.90;;;14.50;100.00;100440.03;4975283;28;20061;-70
2022/12/31 06:58:44;;;;;;;1.65;1.20;;;15.30;99.70;;;14.52;100.00;100441.72;4978698;28;20581;-71
2022/12/31 07:01:47;;;;;;;1.27;1.17;;;15.40;99.50;;;14.52;100.00;100441.72;4979217;28;20510;-71
2022/12/31 07:05:01;;;;;;;1.98;1.20;;;15.30;99.40;;;14.50;100.00;100432.09;4994175;28;20054;-71
2022/12/31 07:08:07;;;;;;;1.42;1.17;;;15.30;99.50;;;14.52;100.00;100433.78;4980333;28;20046;-70
2022/12/31 07:10:44;;;;;;;1.38;1.10;;;15.30;99.30;;;14.49;100.00;100448.91;4994535;28;20044;-70
2022/12/31 07:13:56;;;;;;;3.28;1.63;;;15.30;99.30;;;14.41;100.00;100431.53;4993948;28;20045;-70
2022/12/31 07:16:59;;;;;;;2.97;2.67;;;15.20;99.50;;;14.42;100.00;100446.47;4993563;28;20405;-70
2022/12/31 07:19:58;;;;;;;1.40;1.10;;;15.20;99.40;;;14.41;100.00;100449.22;4992386;28;20050;-70
2022/12/31 07:22:25;;;;;;;4.57;1.70;;;15.30;99.30;;;14.41;100.00;100439.47;4993414;28;20126;-71
2022/12/31 07:24:53;;;;;;;3.78;1.35;;;15.30;99.20;;;14.39;100.00;100443.97;4992318;28;20045;-70
2022/12/31 07:27:48;;;;;;;1.25;1.13;;;15.20;99.20;;;14.35;100.00;100447.66;4991360;28;20115;-71
2022/12/31 07:30:34;;;;;;;2.55;2.00;;;15.20;99.40;;;14.36;100.00;100456.44;4995081;28;20430;-70
2022/12/31 07:33:16;;;;;;;2.38;1.98;;;15.20;99.40;;;14.32;100.00;100456.56;4991810;28;20057;-70
2022/12/31 07:36:12;;;;;;;2.45;1.50;;;15.20;99.40;;;14.30;100.00;100452.28;4993850;28;20215;-70
2022/12/31 07:39:13;;;;;;;2.95;1.50;;;15.10;99.30;;;14.33;100.00;100460.09;4997924;28;20527;-70
2022/12/31 07:42:03;;;;;;;1.60;1.40;;;15.10;99.20;;;14.34;100.00;100467.09;4995988;28;20153;-70
2022/12/31 07:44:52;;;;;;;3.13;1.70;;;15.10;99.30;;;14.32;100.00;100456.56;4992265;28;20056;-70
2022/12/31 07:47:27;;;;;;;31.48;28.33;;;15.20;99.30;;;14.28;100.00;100472.63;4992830;28;20101;-70
2022/12/31 07:49:56;;;;;;;2.95;1.70;;;15.10;99.30;;;14.33;100.00;100468.03;5012677;28;20133;-70
2022/12/31 07:52:24;;;;;;;2.70;2.20;;;15.10;99.10;;;14.30;100.00;100481.38;4996659;28;20050;-70
2022/12/31 07:54:52;;;;;;;2.22;1.50;;;14.90;99.00;;;14.36;100.00;100482.91;4992029;28;20423;-70
2022/12/31 07:57:22;;;;;;;4.65;1.77;;;15.20;99.10;;;14.29;100.00;100477.84;5006919;28;20076;-70
2022/12/31 08:00:13;;;;;;;1.58;1.30;;;15.20;99.20;;;14.35;100.00;100473.25;4989478;28;20054;-70
2022/12/31 08:03:13;;;;;;;3.78;1.67;;;15.20;99.10;;;14.37;100.00;100477.56;5007672;28;20060;-70
2022/12/31 08:06:20;;;;;;;5.20;4.70;;;15.20;99.10;;;14.38;100.00;100478.44;4996274;28;20056;-70
2022/12/31 08:09:11;;;;;;;2.08;1.25;;;15.20;99.20;;;14.40;100.00;100485.38;4973514;28;20046;-71
2022/12/31 08:11:54;;;;;;;3.15;1.50;;;15.30;99.10;;;14.45;100.00;100487.88;4974481;28;20554;-71
2022/12/31 08:14:22;;;;;;;2.67;2.00;;;15.20;99.00;;;14.44;100.00;100497.59;4973227;28;20512;-69
2022/12/31 08:16:50;;;;;;;2.22;1.70;;;15.30;99.10;;;14.45;100.00;100493.16;4982728;28;20042;-68
2022/12/31 08:19:30;;;;;;;1.77;1.67;;;15.30;99.10;;;14.50;100.00;100501.78;4979094;28;20046;-68
2022/12/31 08:22:23;;;;;;;1.52;1.40;;;15.30;99.10;;;14.56;100.00;100519.22;4980263;28;20660;-69
2022/12/31 08:25:29;;;;;;;2.25;1.92;;;15.30;98.70;;;14.72;100.00;100504.50;4979790;28;20054;-69
2022/12/31 08:28:20;;;;;;;1.73;1.60;;;15.50;98.40;;;14.63;100.00;100518.06;4980621;28;20434;-69
2022/12/31 08:31:00;;;;;;;1.30;1.20;;;15.40;98.50;;;14.58;100.00;100502.34;4974490;28;20054;-68
2022/12/31 08:34:03;;;;;;;3.95;1.30;;;15.40;98.80;;;14.66;100.00;100499.41;4979167;28;20066;-69
2022/12/31 08:37:14;;;;;;;1.65;1.30;;;15.50;98.60;;;14.70;100.00;100513.41;4977856;28;20052;-70
2022/12/31 08:40:20;;;;;;;1.52;1.27;;;15.50;98.60;;;14.78;100.00;100507.84;4991651;28;20100;-70
2022/12/31 08:43:14;;;;;;;1.40;1.30;;;15.60;98.40;;;14.77;100.00;100506.13;5000296;28;20049;-70
2022/12/31 08:46:03;;;;;;;2.35;2.15;;;15.60;98.30;;;14.87;100.00;100512.75;5015250;28;20124;-70
2022/12/31 08:48:42;;;;;;;2.75;1.42;;;15.60;98.00;;;14.86;100.00;100503.97;5010904;28;20475;-70
2022/12/31 08:51:18;;;;;;;1.42;1.33;;;15.70;97.90;;;14.88;100.00;100509.19;4994678;28;20470;-70
2022/12/31 08:53:47;;;;;;;1.40;1.30;;;15.70;97.80;;;14.97;100.00;100510.59;4978587;28;20133;-70
2022/12/31 08:56:42;;;;;;;1.58;1.20;;;15.80;97.70;;;14.96;100.00;100519.47;5010656;28;20539;-70
2022/12/31 08:59:47;;;;;;;1.73;1.55;;;15.70;97.60;;;14.98;100.00;100520.28;4990701;28;20153;-70
2022/12/31 09:02:51;;;;;;;1.50;1.40;;;15.80;97.70;;;15.13;100.00;100510.84;5014883;28;20057;-71
2022/12/31 09:05:27;;;;;;;2.80;2.55;;;15.90;97.30;;;15.09;100.00;100517.22;5015664;28;20042;-71
2022/12/31 09:08:10;;;;;;;2.20;1.90;;;15.90;97.40;;;15.12;100.00;100512.63;5011690;28;20076;-71
2022/12/31 09:10:41;;;;;;;1.65;1.30;;;15.90;97.50;;;15.28;100.00;100519.94;4999169;28;20050;-70
2022/12/31 09:13:46;;;;;;;2.75;1.65;;;15.90;97.10;;;15.25;100.00;100522.72;4998349;28;20081;-70
2022/12/31 09:16:33;;;;;;;1.33;1.20;;;16.00;97.10;;;15.26;100.00;100516.50;4995104;28;20049;-70
2022/12/31 09:19:01;;;;;;;4.20;1.50;;;16.00;97.40;;;15.28;100.00;100523.47;4961700;28;20050;-70
2022/12/31 09:21:28;;;;;;;10.90;1.98;;;16.10;97.20;;;15.29;100.00;100533.16;4992962;28;20054;-70
2022/12/31 09:23:55;;;;;;;3.80;1.40;;;16.10;97.00;;;15.31;100.00;100522.50;4994825;28;20058;-69
2022/12/31 09:27:08;;;;;;;3.15;1.50;;;16.10;97.00;;;15.34;100.00;100526.78;4991969;28;20048;-69
2022/12/31 09:29:50;;;;;;;2.92;1.25;;;16.10;97.00;;;15.35;100.00;100529.38;4996398;28;20674;-71
2022/12/31 09:32:58;;;;;;;2.53;1.33;;;16.10;96.90;;;15.42;100.00;100528.19;5019262;28;20065;-70
2022/12/31 09:35:57;;;;;;;1.55;1.15;;;16.20;96.80;;;15.49;100.00;100533.25;5006600;28;20058;-70
2022/12/31 09:38:51;;;;;;;2.70;1.50;;;16.20;96.80;;;15.52;100.00;100541.91;5023822;28;20797;-72
2022/12/31 09:42:09;;;;;;;2.10;1.52;;;16.30;97.00;;;15.69;100.00;100541.22;5007773;28;20562;-72
2022/12/31 09:45:05;;;;;;;2.30;1.40;;;16.40;96.50;;;15.65;100.00;100538.75;5008693;28;20579;-71
2022/12/31 09:47:47;;;;;;;1.60;1.33;;;16.40;96.40;;;15.79;100.00;100562.06;4978237;28;20138;-71
2022/12/31 09:50:16;;;;;;;3.63;1.40;;;16.50;96.50;;;15.79;100.00;100543.50;5001174;28;20542;-70
2022/12/31 09:53:15;;;;;;;1.50;1.20;;;16.50;96.30;;;15.97;100.00;100548.03;5020606;28;20043;-72
2022/12/31 09:55:49;;;;;;;1.50;1.02;;;16.60;95.80;;;16.01;100.00;100540.81;5014690;28;20133;-71
2022/12/31 09:58:58;;;;;;;3.22;1.38;;;16.70;95.70;;;16.03;100.00;100528.31;5019430;28;20050;-72
2022/12/31 10:02:01;;;;;;;1.35;1.25;;;16.70;95.80;;;16.08;100.00;100528.09;4999100;28;20462;-71
2022/12/31 10:04:50;;;;;;;3.35;1.38;;;16.80;95.80;;;16.13;100.00;100528.78;5013286;28;20053;-70
2022/12/31 10:07:50;;;;;;;2.58;1.40;;;16.80;95.50;;;16.11;100.00;100522.66;4996734;28;20057;-70
2022/12/31 10:10:51;;;;;;;2.72;1.17;;;16.80;95.70;;;16.12;100.00;100522.59;5003358;28;20049;-72
2022/12/31 10:13:33;;;;;;;2.40;1.35;;;16.90;95.80;;;16.14;100.00;100518.06;5003826;28;20073;-71
2022/12/31 10:16:23;;;;;;;2.40;1.30;;;16.90;95.80;;;16.27;100.00;100522.81;5005907;28;20096;-71
2022/12/31 10:19:45;;;;;;;1.33;1.20;;;17.00;95.50;;;16.38;100.00;100503.75;5022485;28;20100;-72
2022/12/31 10:22:30;;;;;;;2.42;1.42;;;17.00;94.80;;;16.32;100.00;100509.34;5003824;28;20041;-71
2022/12/31 10:25:32;;;;;;;1.70;1.45;;;17.10;95.20;;;16.42;100.00;100500.88;5005303;28;20049;-71
2022/12/31 10:28:19;;;;;;;1.45;1.30;;;17.10;95.00;;;16.52;100.00;100498.66;5005251;28;20092;-68
2022/12/31 10:31:15;;;;;;;1.20;0.95;;;17.20;94.90;;;16.56;100.00;100505.56;5002155;28;20111;-71
2022/12/31 10:34:05;;;;;;;1.35;1.20;;;17.20;94.60;;;16.63;100.00;100511.44;4987022;28;20132;-71
2022/12/31 10:37:12;;;;;;;3.10;2.10;;;17.30;94.40;;;16.57;100.00;100507.28;5005561;28;20073;-71
2022/12/31 10:40:07;;;;;;;1.27;1.17;;;17.30;94.80;;;16.70;100.00;100515.53;5002262;28;20045;-71
2022/12/31 10:43:14;;;;;;;3.03;1.60;;;17.40;94.20;;;16.64;100.00;100541.50;5008313;28;20087;-71
2022/12/31 10:46:03;;;;;;;3.85;2.10;;;17.40;94.30;;;16.72;100.00;100504.84;5023808;28;20042;-71
2022/12/31 10:49:08;;;;;;;2.20;2.00;;;17.40;94.20;;;16.78;100.00;100501.88;5015069;28;20045;-72
2022/12/31 10:52:07;;;;;;;2.15;1.70;;;17.50;94.10;;;16.94;100.00;100498.47;5007631;28;20068;-72
2022/12/31 10:55:23;;;;;;;2.63;1.77;;;17.60;93.80;;;16.96;100.00;100501.91;5006135;28;20080;-72